createdAt,value
2022-10-31T00:00:30.001Z,6.37
2022-10-31T00:05:32.407Z,7.27
2022-10-31T00:10:34.662Z,7.27
2022-10-31T00:15:38.088Z,8.17
2022-10-31T00:20:40.831Z,7.97
2022-10-31T00:25:43.114Z,8.30
2022-10-31T00:30:45.381Z,8.03
2022-10-31T00:35:51.669Z,9.50
2022-10-31T00:40:53.989Z,8.70
2022-10-31T00:45:56.311Z,8.83
2022-10-31T00:51:00.591Z,8.50
2022-10-31T00:56:03.474Z,9.27
2022-10-31T01:01:06.301Z,7.33
2022-10-31T01:06:12.780Z,7.87
2022-10-31T01:11:16.384Z,7.83
2022-10-31T01:16:20.068Z,8.07
2022-10-31T01:21:28.707Z,7.17
2022-10-31T01:26:34.573Z,7.57
2022-10-31T01:31:39.338Z,7.80
2022-10-31T01:36:41.826Z,8.13
2022-10-31T01:41:49.135Z,8.17
2022-10-31T01:47:14.468Z,7.80
2022-10-31T01:52:38.460Z,6.97
2022-10-31T01:57:46.108Z,6.77
2022-10-31T02:02:50.381Z,7.93
2022-10-31T02:07:58.049Z,7.97
2022-10-31T02:13:07.960Z,7.80
2022-10-31T02:18:15.770Z,7.77
2022-10-31T02:23:40.355Z,7.63
2022-10-31T02:29:16.964Z,8.17
2022-10-31T02:34:46.665Z,8.17
2022-10-31T02:39:54.977Z,7.73
2022-10-31T02:45:33.919Z,8.87
2022-10-31T02:50:41.258Z,8.40
2022-10-31T02:55:52.055Z,7.53
2022-10-31T03:01:20.350Z,7.37
2022-10-31T03:06:26.587Z,7.97
2022-10-31T03:11:46.448Z,6.83
2022-10-31T03:16:56.820Z,7.33
2022-10-31T03:22:24.395Z,7.43
2022-10-31T03:27:29.819Z,7.53
2022-10-31T03:32:43.930Z,7.50
2022-10-31T03:37:48.605Z,7.23
2022-10-31T03:43:03.515Z,6.80
2022-10-31T03:48:08.885Z,6.73
2022-10-31T03:53:17.568Z,6.50
2022-10-31T03:58:33.546Z,6.37
2022-10-31T04:03:38.495Z,6.43
2022-10-31T04:09:04.088Z,6.50
2022-10-31T04:14:07.930Z,6.90
2022-10-31T04:19:13.080Z,6.43
2022-10-31T04:24:15.990Z,6.17
2022-10-31T04:29:18.380Z,5.93
2022-10-31T04:34:20.684Z,5.90
2022-10-31T04:39:26.732Z,6.23
2022-10-31T04:44:52.005Z,6.20
2022-10-31T04:49:55.098Z,6.03
2022-10-31T04:54:57.658Z,6.57
2022-10-31T05:00:26.156Z,6.30
2022-10-31T05:05:31.073Z,6.47
2022-10-31T05:10:35.810Z,6.67
2022-10-31T05:15:39.348Z,6.60
2022-10-31T05:21:00.613Z,6.70
2022-10-31T05:26:10.775Z,6.73
2022-10-31T05:31:13.300Z,6.47
2022-10-31T05:36:17.391Z,6.43
2022-10-31T05:41:33.185Z,7.07
2022-10-31T05:46:41.096Z,7.23
2022-10-31T05:52:15.677Z,6.67
2022-10-31T05:57:26.840Z,7.57
2022-10-31T06:02:33.128Z,7.00
2022-10-31T06:07:56.739Z,7.03
2022-10-31T06:12:59.756Z,6.80
2022-10-31T06:18:16.861Z,7.97
2022-10-31T06:23:24.575Z,7.40
2022-10-31T06:28:34.488Z,7.67
2022-10-31T06:33:48.405Z,7.73
2022-10-31T06:38:50.771Z,7.83
2022-10-31T06:43:56.777Z,7.97
2022-10-31T06:49:17.738Z,7.97
2022-10-31T06:54:29.005Z,7.47
2022-10-31T06:59:31.750Z,7.77
2022-10-31T07:04:54.405Z,7.30
2022-10-31T07:09:56.744Z,7.53
2022-10-31T07:15:15.754Z,7.53
2022-10-31T07:20:19.674Z,7.30
2022-10-31T07:25:24.057Z,8.27
2022-10-31T07:30:41.557Z,7.93
2022-10-31T07:35:44.562Z,8.00
2022-10-31T07:40:53.744Z,8.03
2022-10-31T07:45:56.400Z,8.77
2022-10-31T07:51:18.895Z,8.53
2022-10-31T07:56:40.203Z,8.90
2022-10-31T08:01:42.739Z,9.20
2022-10-31T08:07:03.828Z,9.87
2022-10-31T08:12:10.591Z,9.90
2022-10-31T08:17:13.527Z,10.87
2022-10-31T08:22:22.706Z,10.33
2022-10-31T08:27:25.432Z,12.07
2022-10-31T08:32:29.782Z,12.53
2022-10-31T08:38:04.598Z,12.77
2022-10-31T08:43:14.881Z,13.13
2022-10-31T08:48:18.293Z,14.17
2022-10-31T08:53:20.933Z,14.90
2022-10-31T08:58:36.378Z,15.70
2022-10-31T09:03:42.720Z,17.63
2022-10-31T09:08:46.383Z,18.00
2022-10-31T09:13:48.830Z,17.97
2022-10-31T09:19:00.055Z,17.97
2022-10-31T09:24:02.684Z,16.83
2022-10-31T09:29:05.539Z,18.10
2022-10-31T09:34:08.199Z,17.90
2022-10-31T09:39:13.371Z,17.93
2022-10-31T09:44:44.954Z,17.70
2022-10-31T09:50:07.522Z,19.73
2022-10-31T09:55:20.079Z,18.70
2022-10-31T10:00:23.407Z,18.10
2022-10-31T10:05:40.180Z,18.33
2022-10-31T10:11:13.594Z,18.17
2022-10-31T10:17:00.202Z,17.60
2022-10-31T10:22:28.532Z,16.30
2022-10-31T10:27:48.227Z,15.27
2022-10-31T10:32:58.508Z,15.00
2022-10-31T10:38:19.909Z,15.40
2022-10-31T10:43:31.892Z,14.17
2022-10-31T10:49:05.932Z,15.00
2022-10-31T10:54:34.249Z,13.53
2022-10-31T10:59:36.549Z,12.60
2022-10-31T11:04:41.792Z,14.37
2022-10-31T11:09:44.594Z,12.90
2022-10-31T11:14:53.983Z,12.00
2022-10-31T11:20:18.013Z,11.30
2022-10-31T11:25:26.256Z,10.13
2022-10-31T11:30:29.608Z,10.23
2022-10-31T11:35:31.948Z,8.67
2022-10-31T11:40:34.393Z,9.60
2022-10-31T11:45:37.748Z,9.67
2022-10-31T11:50:42.836Z,9.83
2022-10-31T11:55:46.428Z,10.53
2022-10-31T12:00:55.310Z,10.33
2022-10-31T12:06:06.149Z,10.13
2022-10-31T12:11:43.747Z,10.40
2022-10-31T12:16:51.809Z,9.60
2022-10-31T12:22:00.004Z,9.43
2022-10-31T12:27:36.996Z,8.77
2022-10-31T12:32:50.925Z,7.97
2022-10-31T12:38:05.857Z,9.70
2022-10-31T12:43:35.522Z,7.27
2022-10-31T12:49:01.549Z,7.43
2022-10-31T12:54:20.726Z,6.83
2022-10-31T12:59:29.496Z,6.43
2022-10-31T13:04:36.533Z,6.90
2022-10-31T13:09:54.241Z,5.70
2022-10-31T13:14:59.859Z,6.07
2022-10-31T13:20:23.832Z,5.67
2022-10-31T13:25:31.093Z,5.23
2022-10-31T13:30:37.493Z,5.80
2022-10-31T13:35:51.336Z,5.63
2022-10-31T13:41:03.145Z,5.47
2022-10-31T13:46:31.620Z,5.07
2022-10-31T13:51:36.048Z,5.40
2022-10-31T13:56:40.693Z,5.70
2022-10-31T14:02:02.638Z,5.50
2022-10-31T14:07:14.170Z,6.10
2022-10-31T14:12:38.083Z,6.07
2022-10-31T14:17:48.974Z,6.67
2022-10-31T14:22:51.598Z,6.10
2022-10-31T14:27:55.730Z,6.50
2022-10-31T14:33:18.229Z,6.20
2022-10-31T14:38:29.596Z,5.73
2022-10-31T14:44:04.318Z,6.40
2022-10-31T14:49:32.699Z,6.53
2022-10-31T14:54:40.718Z,5.37
2022-10-31T14:59:50.172Z,4.80
2022-10-31T15:04:54.405Z,4.83
2022-10-31T15:10:05.749Z,4.63
2022-10-31T15:15:24.488Z,5.00
2022-10-31T15:20:29.283Z,4.33
2022-10-31T15:25:35.324Z,4.67
2022-10-31T15:30:37.650Z,5.27
2022-10-31T15:35:39.984Z,4.70
2022-10-31T15:40:54.672Z,4.97
2022-10-31T15:45:58.617Z,4.60
2022-10-31T15:51:01.334Z,4.53
2022-10-31T15:56:07.894Z,4.87
2022-10-31T16:01:31.629Z,3.93
2022-10-31T16:06:35.372Z,4.60
2022-10-31T16:11:39.545Z,5.00
2022-10-31T16:16:53.360Z,4.60
2022-10-31T16:22:19.648Z,4.83
2022-10-31T16:27:30.081Z,4.63
2022-10-31T16:32:38.510Z,5.07
2022-10-31T16:37:42.432Z,5.57
2022-10-31T16:42:46.343Z,4.70
2022-10-31T16:47:49.444Z,5.40
2022-10-31T16:53:12.400Z,4.53
2022-10-31T16:58:22.386Z,4.80
2022-10-31T17:03:24.780Z,4.50
2022-10-31T17:08:27.198Z,4.60
2022-10-31T17:13:32.235Z,4.97
2022-10-31T17:18:34.537Z,5.37
2022-10-31T17:23:38.151Z,5.00
2022-10-31T17:28:40.660Z,5.40
2022-10-31T17:33:43.161Z,5.43
2022-10-31T17:38:45.520Z,5.53
2022-10-31T17:43:47.929Z,7.00
2022-10-31T17:48:50.378Z,5.33
2022-10-31T17:53:52.661Z,5.37
2022-10-31T17:58:57.108Z,5.53
2022-10-31T18:03:59.488Z,5.30
2022-10-31T18:09:05.835Z,5.60
2022-10-31T18:14:09.391Z,5.13
2022-10-31T18:19:13.563Z,5.23
2022-10-31T18:24:15.838Z,5.17
2022-10-31T18:29:18.297Z,5.90
2022-10-31T18:34:20.738Z,4.70
2022-10-31T18:39:23.048Z,5.00
2022-10-31T18:44:25.706Z,4.73
2022-10-31T18:49:32.458Z,4.83
2022-10-31T18:54:34.712Z,4.63
2022-10-31T18:59:37.130Z,4.60
2022-10-31T19:04:39.459Z,5.10
2022-10-31T19:09:41.731Z,5.63
2022-10-31T19:14:44.049Z,4.90
2022-10-31T19:19:46.355Z,5.27
2022-10-31T19:24:48.689Z,5.20
2022-10-31T19:29:50.980Z,5.60
2022-10-31T19:34:53.269Z,5.07
2022-10-31T19:39:55.548Z,5.37
2022-10-31T19:44:57.781Z,5.47
2022-10-31T19:50:00.055Z,5.17
2022-10-31T19:55:02.814Z,4.93
2022-10-31T20:00:05.918Z,5.07
2022-10-31T20:05:13.935Z,4.33
2022-10-31T20:10:16.674Z,5.10
2022-10-31T20:15:18.955Z,4.60
2022-10-31T20:20:21.279Z,4.30
2022-10-31T20:25:23.553Z,4.40
2022-10-31T20:30:26.313Z,4.00
2022-10-31T20:35:28.593Z,4.27
2022-10-31T20:40:31.728Z,4.57
2022-10-31T20:45:34.120Z,4.57
2022-10-31T20:50:39.200Z,4.20
2022-10-31T20:55:41.560Z,4.20
2022-10-31T21:00:43.899Z,4.17
2022-10-31T21:06:13.017Z,3.90
2022-10-31T21:11:18.221Z,3.90
2022-10-31T21:16:26.174Z,3.70
2022-10-31T21:21:32.778Z,3.87
2022-10-31T21:26:39.851Z,4.00
2022-10-31T21:31:43.154Z,3.47
2022-10-31T21:36:45.557Z,3.77
2022-10-31T21:41:49.787Z,3.40
2022-10-31T21:46:52.030Z,3.37
2022-10-31T21:51:54.315Z,3.93
2022-10-31T21:56:58.076Z,3.90
2022-10-31T22:02:01.272Z,3.97
2022-10-31T22:07:03.879Z,4.00
2022-10-31T22:12:08.938Z,4.10
2022-10-31T22:17:11.426Z,3.27
2022-10-31T22:22:13.719Z,4.20
2022-10-31T22:27:15.959Z,3.80
2022-10-31T22:32:18.212Z,4.63
2022-10-31T22:37:20.466Z,5.43
2022-10-31T22:42:22.711Z,4.70
2022-10-31T22:47:24.967Z,4.53
2022-10-31T22:52:27.264Z,5.00
2022-10-31T22:57:29.719Z,4.20
2022-10-31T23:02:32.176Z,3.80
2022-10-31T23:07:34.488Z,5.07
2022-10-31T23:12:55.374Z,5.00
2022-10-31T23:17:57.752Z,3.40
2022-10-31T23:23:00.408Z,3.47
2022-10-31T23:28:02.932Z,3.73
2022-10-31T23:33:05.363Z,3.37
2022-10-31T23:38:07.643Z,3.40
2022-10-31T23:43:09.962Z,3.43
2022-10-31T23:48:12.208Z,3.37
2022-10-31T23:53:14.588Z,3.20
2022-10-31T23:58:17.583Z,3.37
